createdAt,value
2018-11-26T00:00:35.242Z,17.43
2018-11-26T00:03:04.967Z,18.10
2018-11-26T00:05:37.461Z,16.87
2018-11-26T00:08:08.124Z,16.63
2018-11-26T00:10:51.884Z,21.27
2018-11-26T00:13:21.306Z,18.23
2018-11-26T00:15:49.882Z,20.43
2018-11-26T00:18:19.250Z,18.90
2018-11-26T00:20:48.443Z,20.20
2018-11-26T00:23:17.618Z,20.63
2018-11-26T00:25:47.021Z,21.50
2018-11-26T00:28:16.068Z,23.73
2018-11-26T00:30:48.004Z,21.13
2018-11-26T00:33:17.668Z,24.47
2018-11-26T00:35:51.968Z,24.50
2018-11-26T00:38:20.655Z,22.93
2018-11-26T00:40:53.867Z,22.13
2018-11-26T00:43:22.731Z,25.07
2018-11-26T00:45:55.725Z,24.97
2018-11-26T00:48:24.315Z,18.93
2018-11-26T00:50:59.881Z,22.20
2018-11-26T00:53:28.992Z,25.30
2018-11-26T00:56:02.641Z,23.73
2018-11-26T00:58:31.716Z,20.63
2018-11-26T01:01:06.759Z,22.73
2018-11-26T01:03:36.159Z,20.17
2018-11-26T01:06:09.156Z,19.50
2018-11-26T01:08:37.739Z,19.60
2018-11-26T01:11:11.772Z,19.20
2018-11-26T01:13:40.802Z,18.70
2018-11-26T01:16:22.773Z,22.37
2018-11-26T01:18:51.708Z,26.10
2018-11-26T01:21:20.757Z,22.33
2018-11-26T01:23:49.496Z,20.57
2018-11-26T01:26:18.562Z,20.60
2018-11-26T01:28:47.638Z,19.40
2018-11-26T01:31:21.200Z,18.47
2018-11-26T01:33:50.868Z,19.73
2018-11-26T01:36:32.135Z,20.43
2018-11-26T01:39:01.051Z,19.80
2018-11-26T01:41:30.832Z,19.17
2018-11-26T01:43:59.412Z,19.57
2018-11-26T01:46:28.753Z,20.00
2018-11-26T01:48:57.315Z,19.57
2018-11-26T01:51:32.883Z,20.27
2018-11-26T01:54:02.217Z,20.13
2018-11-26T01:56:34.435Z,20.27
2018-11-26T01:59:03.478Z,20.00
2018-11-26T02:01:34.596Z,20.30
2018-11-26T02:04:03.203Z,20.53
2018-11-26T02:06:39.145Z,19.30
2018-11-26T02:09:08.020Z,20.23
2018-11-26T02:11:40.766Z,21.93
2018-11-26T02:14:09.855Z,20.93
2018-11-26T02:16:51.690Z,20.33
2018-11-26T02:19:20.740Z,20.47
2018-11-26T02:21:49.695Z,21.27
2018-11-26T02:24:18.571Z,20.47
2018-11-26T02:26:48.192Z,20.43
2018-11-26T02:29:17.236Z,21.47
2018-11-26T02:31:50.772Z,21.50
2018-11-26T02:34:19.824Z,21.17
2018-11-26T02:36:52.356Z,21.83
2018-11-26T02:39:21.403Z,21.50
2018-11-26T02:41:56.718Z,23.60
2018-11-26T02:44:25.575Z,21.47
2018-11-26T02:47:00.605Z,21.57
2018-11-26T02:49:29.327Z,20.87
2018-11-26T02:52:01.492Z,21.27
2018-11-26T02:54:30.496Z,20.70
2018-11-26T02:57:04.400Z,21.97
2018-11-26T02:59:33.516Z,21.97
2018-11-26T03:02:08.319Z,21.37
2018-11-26T03:04:37.179Z,21.73
2018-11-26T03:07:10.819Z,23.07
2018-11-26T03:09:39.567Z,22.27
2018-11-26T03:12:13.855Z,21.90
2018-11-26T03:14:42.722Z,21.57
2018-11-26T03:17:16.636Z,21.70
2018-11-26T03:19:45.940Z,22.83
2018-11-26T03:22:19.201Z,21.50
2018-11-26T03:24:48.236Z,21.80
2018-11-26T03:27:21.192Z,23.93
2018-11-26T03:29:50.067Z,21.63
2018-11-26T03:32:31.336Z,23.20
2018-11-26T03:35:00.382Z,24.23
2018-11-26T03:37:28.966Z,23.33
2018-11-26T03:39:57.811Z,29.83
2018-11-26T03:42:27.754Z,23.60
2018-11-26T03:44:56.792Z,24.23
2018-11-26T03:47:37.738Z,24.63
2018-11-26T03:50:06.351Z,24.17
2018-11-26T03:52:35.440Z,23.77
2018-11-26T03:55:05.000Z,23.60
2018-11-26T03:57:35.808Z,25.83
2018-11-26T04:00:05.381Z,23.40
2018-11-26T04:02:37.338Z,24.27
2018-11-26T04:05:07.532Z,24.03
2018-11-26T04:07:40.349Z,24.43
2018-11-26T04:10:10.416Z,23.73
2018-11-26T04:12:42.945Z,25.77
2018-11-26T04:15:13.716Z,26.67
2018-11-26T04:17:46.692Z,28.07
2018-11-26T04:20:15.323Z,27.37
2018-11-26T04:22:57.060Z,25.73
2018-11-26T04:25:26.394Z,29.27
2018-11-26T04:30:27.602Z,26.73
2018-11-26T04:32:56.459Z,26.43
2018-11-26T04:35:25.181Z,25.07
2018-11-26T04:37:57.728Z,24.93
2018-11-26T04:40:26.663Z,24.93
2018-11-26T04:42:59.073Z,25.70
2018-11-26T04:45:27.767Z,26.83
2018-11-26T04:48:00.909Z,24.63
2018-11-26T04:50:29.582Z,25.43
2018-11-26T04:53:03.166Z,25.03
2018-11-26T04:55:32.522Z,25.90
2018-11-26T04:58:01.381Z,26.00
2018-11-26T05:00:31.216Z,25.53
2018-11-26T05:03:00.572Z,24.47
2018-11-26T05:05:29.652Z,24.07
2018-11-26T05:07:58.225Z,26.33
2018-11-26T05:10:27.083Z,27.47
2018-11-26T05:12:56.136Z,25.33
2018-11-26T05:15:24.731Z,25.60
2018-11-26T05:17:53.592Z,22.93
2018-11-26T05:20:22.199Z,23.53
2018-11-26T05:22:51.998Z,24.50
2018-11-26T05:25:22.016Z,24.00
2018-11-26T05:27:51.124Z,24.03
2018-11-26T05:30:23.133Z,27.20
2018-11-26T05:32:52.228Z,22.60
2018-11-26T05:35:24.768Z,24.13
2018-11-26T05:37:53.350Z,25.30
2018-11-26T05:40:26.909Z,23.50
2018-11-26T05:42:55.575Z,24.53
2018-11-26T05:45:24.256Z,25.03
2018-11-26T05:47:54.977Z,26.30
2018-11-26T05:50:23.603Z,26.07
2018-11-26T05:52:52.581Z,24.07
2018-11-26T05:55:21.988Z,29.47
2018-11-26T05:57:50.911Z,30.30
2018-11-26T06:00:37.025Z,25.30
2018-11-26T06:03:06.199Z,32.73
2018-11-26T06:05:37.888Z,28.50
2018-11-26T06:08:07.120Z,27.47
2018-11-26T06:10:35.983Z,28.40
2018-11-26T06:13:05.425Z,26.53
2018-11-26T06:15:34.140Z,27.37
2018-11-26T06:18:03.147Z,31.00
2018-11-26T06:20:31.743Z,24.97
2018-11-26T06:23:00.362Z,27.43
2018-11-26T06:25:29.220Z,28.00
2018-11-26T06:27:57.820Z,27.07
2018-11-26T06:30:26.982Z,27.83
2018-11-26T06:32:59.201Z,27.20
2018-11-26T06:35:27.795Z,26.67
2018-11-26T06:38:00.921Z,27.50
2018-11-26T06:40:30.401Z,31.60
2018-11-26T06:43:03.412Z,30.63
2018-11-26T06:45:32.016Z,29.17
2018-11-26T06:48:06.520Z,26.10
2018-11-26T06:50:35.827Z,27.47
2018-11-26T06:53:10.409Z,27.47
2018-11-26T06:55:39.970Z,25.97
2018-11-26T06:58:12.150Z,28.47
2018-11-26T07:00:40.947Z,30.00
2018-11-26T07:03:13.307Z,29.90
2018-11-26T07:05:41.948Z,28.90
2018-11-26T07:08:15.772Z,27.50
2018-11-26T07:10:44.676Z,27.90
2018-11-26T07:13:17.587Z,28.20
2018-11-26T07:15:46.652Z,26.63
2018-11-26T07:18:20.743Z,27.50
2018-11-26T07:20:50.886Z,27.37
2018-11-26T07:23:23.863Z,27.20
2018-11-26T07:25:52.767Z,28.50
2018-11-26T07:28:27.149Z,30.00
2018-11-26T07:30:56.714Z,29.73
2018-11-26T07:33:30.472Z,30.13
2018-11-26T07:35:59.116Z,31.27
2018-11-26T07:38:32.778Z,29.90
2018-11-26T07:41:01.697Z,30.03
2018-11-26T07:43:43.874Z,29.40
2018-11-26T07:46:12.775Z,28.40
2018-11-26T07:48:41.486Z,29.50
2018-11-26T07:51:10.589Z,29.43
2018-11-26T07:55:06.691Z,30.17
2018-11-26T07:57:42.242Z,27.43
2018-11-26T08:27:23.648Z,28.83
2018-11-26T08:29:56.577Z,26.63
2018-11-26T08:32:34.041Z,27.53
2018-11-26T08:34:59.840Z,29.50
2018-11-26T08:37:33.724Z,30.53
2018-11-26T08:40:08.759Z,29.23
2018-11-26T08:42:45.798Z,28.17
2018-11-26T08:45:25.176Z,28.50
2018-11-26T08:48:57.345Z,26.17
2018-11-26T08:51:26.913Z,30.07
2018-11-26T08:53:55.727Z,29.67
2018-11-26T08:56:24.387Z,28.93
2018-11-26T08:58:53.404Z,27.20
2018-11-26T09:01:27.924Z,29.53
2018-11-26T09:03:57.603Z,30.37
2018-11-26T09:06:27.008Z,30.17
2018-11-26T09:08:55.627Z,30.40
2018-11-26T09:11:24.245Z,30.57
2018-11-26T09:13:54.687Z,28.27
2018-11-26T09:16:23.726Z,28.77
2018-11-26T09:18:53.226Z,27.60
2018-11-26T09:21:25.623Z,27.73
2018-11-26T09:23:54.324Z,27.33
2018-11-26T09:26:26.771Z,25.80
2018-11-26T09:28:56.482Z,26.63
2018-11-26T09:31:32.519Z,27.73
2018-11-26T09:34:01.008Z,27.70
2018-11-26T09:36:33.527Z,27.77
2018-11-26T09:39:02.618Z,26.77
2018-11-26T09:41:34.740Z,26.73
2018-11-26T09:44:04.216Z,27.57
2018-11-26T09:46:45.527Z,26.63
2018-11-26T09:49:15.215Z,28.07
2018-11-26T09:51:44.274Z,25.97
2018-11-26T09:54:13.010Z,28.87
2018-11-26T09:56:42.209Z,28.40
2018-11-26T09:59:11.566Z,27.83
2018-11-26T10:01:44.759Z,27.57
2018-11-26T10:04:16.032Z,25.20
2018-11-26T10:06:48.212Z,25.53
2018-11-26T10:09:16.803Z,26.90
2018-11-26T10:11:49.486Z,26.27
2018-11-26T10:14:18.972Z,28.30
2018-11-26T10:16:56.049Z,25.87
2018-11-26T10:19:25.655Z,26.93
2018-11-26T10:21:56.820Z,28.63
2018-11-26T10:24:26.513Z,25.67
2018-11-26T10:26:58.595Z,26.30
2018-11-26T10:29:28.095Z,28.00
2018-11-26T10:32:10.985Z,26.87
2018-11-26T10:34:40.321Z,25.47
2018-11-26T10:37:09.453Z,26.47
2018-11-26T10:39:38.541Z,27.00
2018-11-26T10:42:09.637Z,27.93
2018-11-26T10:44:38.776Z,29.93
2018-11-26T10:47:11.381Z,27.03
2018-11-26T10:49:40.008Z,27.30
2018-11-26T10:52:12.617Z,27.17
2018-11-26T10:54:45.734Z,27.50
2018-11-26T10:57:17.925Z,25.93
2018-11-26T10:59:46.569Z,27.87
2018-11-26T11:02:24.500Z,26.03
2018-11-26T11:04:53.527Z,25.60
2018-11-26T11:07:22.756Z,27.03
2018-11-26T11:09:51.572Z,27.63
2018-11-26T11:12:23.981Z,24.20
2018-11-26T11:14:54.025Z,26.93
2018-11-26T11:17:24.922Z,25.17
2018-11-26T11:19:53.565Z,25.10
2018-11-26T11:22:27.002Z,25.00
2018-11-26T11:25:00.160Z,27.17
2018-11-26T11:27:32.056Z,26.47
2018-11-26T11:30:02.243Z,25.27
2018-11-26T11:32:34.002Z,26.73
2018-11-26T11:35:03.621Z,25.27
2018-11-26T11:37:37.166Z,27.00
2018-11-26T11:40:13.925Z,26.33
2018-11-26T11:42:43.345Z,26.40
2018-11-26T11:45:14.442Z,25.23
2018-11-26T11:47:44.100Z,24.57
2018-11-26T11:50:13.513Z,25.70
2018-11-26T11:52:43.129Z,26.17
2018-11-26T11:55:14.671Z,24.73
2018-11-26T11:57:47.569Z,25.17
2018-11-26T12:00:44.931Z,25.13
2018-11-26T12:03:14.972Z,25.50
2018-11-26T12:05:49.423Z,25.53
2018-11-26T12:08:18.015Z,25.27
2018-11-26T12:10:51.771Z,27.63
2018-11-26T12:13:20.773Z,29.03
2018-11-26T12:15:58.214Z,26.23
2018-11-26T12:18:27.325Z,26.20
2018-11-26T12:20:58.912Z,27.57
2018-11-26T12:23:28.533Z,26.40
2018-11-26T12:28:19.992Z,26.70
2018-11-26T12:30:49.110Z,26.77
2018-11-26T12:33:18.214Z,26.10
2018-11-26T12:35:47.086Z,28.47
2018-11-26T12:38:16.234Z,28.57
2018-11-26T12:40:45.523Z,30.67
2018-11-26T12:43:15.376Z,30.37
2018-11-26T12:45:44.361Z,29.47
2018-11-26T12:48:16.945Z,30.63
2018-11-26T12:50:47.995Z,27.63
2018-11-26T12:53:18.521Z,27.57
2018-11-26T12:55:48.160Z,26.33
2018-11-26T12:58:20.466Z,25.00
2018-11-26T13:00:51.161Z,25.13
2018-11-26T13:03:22.221Z,24.17
2018-11-26T13:05:52.534Z,25.90
2018-11-26T13:08:24.717Z,26.93
2018-11-26T13:10:53.673Z,27.23
2018-11-26T13:13:35.146Z,27.30
2018-11-26T13:16:05.714Z,26.90
2018-11-26T13:18:34.373Z,25.47
2018-11-26T13:21:03.446Z,26.30
2018-11-26T13:23:32.948Z,25.77
2018-11-26T13:26:02.053Z,26.00
2018-11-26T13:28:45.159Z,26.70
2018-11-26T13:31:14.979Z,27.27
2018-11-26T13:33:44.101Z,27.27
2018-11-26T13:36:12.692Z,26.40
2018-11-26T13:38:42.481Z,25.60
2018-11-26T13:41:11.691Z,27.77
2018-11-26T13:43:43.064Z,26.77
2018-11-26T13:46:11.985Z,27.27
2018-11-26T13:48:45.830Z,26.00
2018-11-26T13:51:15.116Z,25.17
2018-11-26T13:53:47.562Z,25.73
2018-11-26T13:56:16.324Z,25.87
2018-11-26T13:58:49.498Z,27.40
2018-11-26T14:01:19.284Z,27.07
2018-11-26T14:03:52.273Z,28.57
2018-11-26T14:06:22.972Z,27.10
2018-11-26T14:08:57.890Z,27.53
2018-11-26T14:11:28.616Z,27.23
2018-11-26T14:14:00.541Z,25.20
2018-11-26T14:16:30.410Z,26.07
2018-11-26T14:19:03.574Z,27.07
2018-11-26T14:21:32.907Z,25.53
2018-11-26T14:24:08.822Z,26.53
2018-11-26T14:26:38.150Z,26.73
2018-11-26T14:29:10.592Z,27.37
2018-11-26T14:31:39.934Z,25.53
2018-11-26T14:34:21.142Z,26.07
2018-11-26T14:36:50.493Z,27.17
2018-11-26T14:39:19.403Z,27.30
2018-11-26T14:41:49.526Z,26.77
2018-11-26T14:44:18.467Z,28.27
2018-11-26T14:46:47.073Z,25.73
2018-11-26T14:49:20.641Z,28.77
2018-11-26T14:51:49.726Z,26.70
2018-11-26T14:54:21.885Z,27.43
2018-11-26T14:56:51.002Z,27.23
2018-11-26T14:59:25.538Z,26.40
2018-11-26T15:01:54.205Z,27.13
2018-11-26T15:04:26.889Z,26.87
2018-11-26T15:06:57.067Z,26.80
2018-11-26T15:09:29.768Z,27.40
2018-11-26T15:11:58.456Z,27.10
2018-11-26T15:14:40.102Z,27.17
2018-11-26T15:17:08.940Z,27.20
2018-11-26T15:19:39.217Z,29.43
2018-11-26T15:22:08.285Z,28.47
2018-11-26T15:24:37.746Z,28.53
2018-11-26T15:27:06.600Z,33.80
2018-11-26T15:29:39.824Z,29.13
2018-11-26T15:32:08.946Z,26.83
2018-11-26T15:34:42.413Z,27.73
2018-11-26T15:37:11.025Z,29.50
2018-11-26T15:39:47.216Z,28.60
2018-11-26T15:42:16.237Z,27.57
2018-11-26T15:44:48.194Z,30.83
2018-11-26T15:47:17.444Z,30.30
2018-11-26T15:49:49.482Z,30.13
2018-11-26T15:52:18.202Z,30.67
2018-11-26T15:55:00.803Z,30.73
2018-11-26T15:57:29.680Z,28.37
2018-11-26T16:02:37.758Z,27.97
2018-11-26T16:05:07.371Z,29.60
2018-11-26T16:07:37.383Z,29.23
2018-11-26T16:10:07.164Z,28.53
2018-11-26T16:12:36.836Z,28.67
2018-11-26T16:15:07.808Z,29.10
2018-11-26T16:17:36.878Z,27.20
2018-11-26T16:20:09.805Z,27.97
2018-11-26T16:22:39.575Z,29.73
2018-11-26T16:25:14.545Z,31.57
2018-11-26T16:27:44.310Z,31.27
2018-11-26T16:30:13.788Z,32.17
2018-11-26T16:32:44.032Z,34.67
2018-11-26T16:35:16.693Z,31.97
2018-11-26T16:37:45.774Z,31.30
2018-11-26T16:40:17.791Z,28.97
2018-11-26T16:42:46.792Z,31.47
2018-11-26T16:45:22.538Z,30.07
2018-11-26T16:47:51.684Z,28.67
2018-11-26T16:50:23.625Z,31.17
2018-11-26T16:53:05.492Z,31.47
2018-11-26T16:55:38.782Z,30.53
2018-11-26T16:58:07.397Z,30.37
2018-11-26T17:00:37.462Z,32.07
2018-11-26T17:03:07.845Z,33.03
2018-11-26T17:05:39.127Z,32.70
2018-11-26T17:08:08.901Z,34.97
2018-11-26T17:10:39.227Z,33.07
2018-11-26T17:13:12.956Z,31.10
2018-11-26T17:18:05.896Z,31.70
2018-11-26T17:20:36.961Z,32.47
2018-11-26T17:23:07.609Z,32.73
2018-11-26T17:25:40.845Z,31.63
2018-11-26T17:28:10.725Z,32.27
2018-11-26T17:30:42.642Z,32.03
2018-11-26T17:33:12.725Z,29.97
2018-11-26T17:35:44.530Z,32.57
2018-11-26T17:38:13.650Z,30.80
2018-11-26T17:40:49.338Z,32.33
2018-11-26T17:43:18.417Z,34.10
2018-11-26T17:45:52.114Z,32.30
2018-11-26T17:48:21.645Z,32.47
2018-11-26T17:50:54.575Z,32.63
2018-11-26T17:53:23.177Z,33.40
2018-11-26T17:55:56.706Z,33.37
2018-11-26T17:58:25.954Z,35.33
2018-11-26T18:01:03.072Z,32.07
2018-11-26T18:03:32.565Z,34.47
2018-11-26T18:06:01.305Z,32.47
2018-11-26T18:08:30.361Z,31.03
2018-11-26T18:11:05.970Z,32.33
2018-11-26T18:13:34.601Z,31.00
2018-11-26T18:16:07.833Z,33.67
2018-11-26T18:18:37.686Z,35.20
2018-11-26T18:21:13.301Z,34.87
2018-11-26T18:23:42.371Z,33.53
2018-11-26T18:26:13.980Z,36.00
2018-11-26T18:28:43.190Z,32.13
2018-11-26T18:31:15.300Z,31.23
2018-11-26T18:33:44.182Z,32.70
2018-11-26T18:36:18.870Z,31.03
2018-11-26T18:38:48.757Z,30.73
2018-11-26T18:41:20.289Z,25.80
2018-11-26T18:43:49.141Z,30.07
2018-11-26T18:46:23.508Z,30.70
2018-11-26T18:48:53.749Z,31.10
2018-11-26T18:51:25.741Z,29.53
2018-11-26T18:53:56.907Z,29.83
2018-11-26T18:56:29.649Z,29.50
2018-11-26T18:58:58.779Z,30.07
2018-11-26T19:01:30.670Z,31.97
2018-11-26T19:03:59.397Z,30.80
2018-11-26T19:06:34.337Z,29.40
2018-11-26T19:09:03.121Z,30.13
2018-11-26T19:11:39.482Z,30.00
2018-11-26T19:14:12.112Z,29.63
2018-11-26T19:16:42.592Z,30.77
2018-11-26T19:19:11.663Z,28.90
2018-11-26T19:21:43.206Z,29.93
2018-11-26T19:24:12.467Z,28.67
2018-11-26T19:26:45.122Z,30.40
2018-11-26T19:29:13.776Z,30.30
2018-11-26T19:31:46.727Z,27.77
2018-11-26T19:34:15.677Z,27.77
2018-11-26T19:36:49.183Z,29.93
2018-11-26T19:39:18.316Z,30.03
2018-11-26T19:41:52.961Z,29.03
2018-11-26T19:44:21.917Z,28.50
2018-11-26T19:46:55.892Z,29.23
2018-11-26T19:49:24.802Z,29.53
2018-11-26T19:51:58.016Z,29.27
2018-11-26T19:54:27.336Z,28.07
2018-11-26T19:57:02.248Z,30.60
2018-11-26T19:59:32.417Z,31.60
2018-11-26T20:02:04.361Z,29.50
2018-11-26T20:04:35.773Z,33.13
2018-11-26T20:07:07.021Z,32.07
2018-11-26T20:09:35.641Z,32.67
2018-11-26T20:12:09.921Z,32.03
2018-11-26T20:14:38.546Z,33.27
2018-11-26T20:17:11.496Z,30.17
2018-11-26T20:19:41.139Z,33.17
2018-11-26T20:22:17.567Z,31.27
2018-11-26T20:24:48.122Z,32.97
2018-11-26T20:27:18.551Z,30.63
2018-11-26T20:29:48.037Z,31.20
2018-11-26T20:32:19.952Z,31.17
2018-11-26T20:34:49.645Z,32.00
2018-11-26T20:37:31.364Z,32.87
2018-11-26T20:40:01.362Z,32.23
2018-11-26T20:42:31.719Z,31.47
2018-11-26T20:45:01.409Z,32.37
2018-11-26T20:47:30.535Z,29.77
2018-11-26T20:49:59.836Z,31.73
2018-11-26T20:52:31.160Z,31.30
2018-11-26T20:54:59.752Z,30.93
2018-11-26T20:57:32.703Z,31.77
2018-11-26T21:00:01.645Z,32.30
2018-11-26T21:02:34.513Z,32.13
2018-11-26T21:05:05.044Z,31.60
2018-11-26T21:07:36.799Z,33.63
2018-11-26T21:10:08.157Z,34.03
2018-11-26T21:12:44.309Z,42.53
2018-11-26T21:15:15.621Z,33.43
2018-11-26T21:17:48.177Z,36.33
2018-11-26T21:20:54.968Z,39.97
2018-11-26T21:23:26.590Z,32.80
2018-11-26T21:25:57.288Z,33.93
2018-11-26T21:28:26.369Z,32.20
2018-11-26T21:30:55.871Z,33.60
2018-11-26T21:33:24.876Z,33.10
2018-11-26T21:35:54.640Z,32.20
2018-11-26T21:38:23.790Z,32.27
2018-11-26T21:40:54.348Z,32.80
2018-11-26T21:43:23.469Z,34.13
2018-11-26T21:46:00.162Z,32.97
2018-11-26T21:48:29.641Z,34.77
2018-11-26T21:50:59.960Z,35.37
2018-11-26T21:53:29.609Z,35.07
2018-11-26T21:56:12.317Z,33.37
2018-11-26T21:58:41.546Z,38.23
2018-11-26T22:01:10.437Z,40.90
2018-11-26T22:03:41.139Z,39.33
2018-11-26T22:06:10.445Z,38.47
2018-11-26T22:08:39.492Z,40.43
2018-11-26T22:11:12.020Z,38.47
2018-11-26T22:13:40.601Z,42.40
2018-11-26T22:16:13.145Z,35.90
2018-11-26T22:18:42.156Z,34.43
2018-11-26T22:21:15.661Z,36.90
2018-11-26T22:23:47.721Z,35.13
2018-11-26T22:26:20.826Z,34.80
2018-11-26T22:28:50.584Z,31.47
2018-11-26T22:31:21.059Z,33.37
2018-11-26T22:33:50.829Z,33.50
2018-11-26T22:36:22.844Z,33.67
2018-11-26T22:38:52.026Z,34.87
2018-11-26T22:41:26.025Z,33.53
2018-11-26T22:43:54.604Z,31.97
2018-11-26T22:46:27.554Z,34.30
2018-11-26T22:48:57.020Z,32.30
2018-11-26T22:51:29.996Z,40.67
2018-11-26T22:53:59.036Z,35.73
2018-11-26T22:56:34.977Z,33.17
2018-11-26T22:59:04.459Z,34.67
2018-11-26T23:01:35.415Z,34.70
2018-11-26T23:04:04.036Z,39.87
2018-11-26T23:06:40.442Z,36.07
2018-11-26T23:09:10.281Z,34.50
2018-11-26T23:11:40.229Z,35.47
2018-11-26T23:14:09.641Z,34.97
2018-11-26T23:16:42.680Z,34.00
2018-11-26T23:19:11.266Z,34.73
2018-11-26T23:21:43.813Z,32.50
2018-11-26T23:24:13.285Z,33.23
2018-11-26T23:26:46.653Z,35.70
2018-11-26T23:29:15.936Z,32.97
2018-11-26T23:36:20.027Z,32.37
2018-11-26T23:38:55.189Z,34.07
2018-11-26T23:41:23.797Z,33.63
2018-11-26T23:43:59.251Z,34.20
2018-11-26T23:46:28.728Z,34.20
2018-11-26T23:49:00.511Z,35.43
2018-11-26T23:51:29.879Z,34.90
2018-11-26T23:54:03.129Z,34.40
2018-11-26T23:56:32.454Z,34.13
2018-11-26T23:59:06.754Z,33.10
